Time;durP1;ratioP1;P1;durP2;ratioP2;P2;SDS_P1;SDS_P2;PMS_P1;PMS_P2;Temp;Humidity;BMP_temperature;BMP_pressure;BME280_temperature;BME280_humidity;BME280_pressure;Samples;Min_cycle;Max_cycle;Signal;HPM_P1;HPM_P2
2024/01/22 00:00:33;;;;;;;1.80;0.20;;;;;;;11.27;100.00;98606.00;4973937;28;20031;-91
2024/01/22 00:03:00;;;;;;;2.85;0.20;;;;;;;11.25;100.00;98604.53;4973725;28;20026;-91
2024/01/22 00:05:25;;;;;;;0.35;0.30;;;;;;;11.29;100.00;98598.13;4973569;28;20058;-91
2024/01/22 00:07:51;;;;;;;1.27;0.22;;;;;;;11.30;100.00;98625.59;4973049;28;20065;-91
2024/01/22 00:10:16;;;;;;;2.80;0.52;;;;;;;11.24;100.00;98645.03;4973263;28;20042;-92
2024/01/22 00:12:42;;;;;;;9.35;0.52;;;;;;;11.22;100.00;98656.44;4973289;28;20031;-93
2024/01/22 00:15:07;;;;;;;2.15;0.17;;;;;;;11.27;100.00;98668.00;4980533;28;20145;-92
2024/01/22 00:17:32;;;;;;;3.28;0.43;;;;;;;11.22;100.00;98702.94;4982680;28;20035;-92
2024/01/22 00:19:58;;;;;;;3.60;0.52;;;;;;;11.26;100.00;98759.31;4971684;28;20362;-92
2024/01/22 00:22:23;;;;;;;4.43;0.90;;;;;;;11.10;100.00;98674.66;4973117;28;20027;-92
2024/01/22 00:24:48;;;;;;;3.75;1.25;;;;;;;11.03;100.00;98678.72;4971576;28;20113;-92
2024/01/22 00:27:14;;;;;;;5.07;0.80;;;;;;;10.91;100.00;98666.88;4972801;28;20504;-92
2024/01/22 00:29:40;;;;;;;6.00;0.75;;;;;;;10.88;100.00;98649.09;4972521;28;20041;-92
2024/01/22 00:32:06;;;;;;;9.63;1.30;;;;;;;10.78;100.00;98661.13;4971697;28;20380;-93
2024/01/22 00:34:31;;;;;;;16.15;2.75;;;;;;;10.74;100.00;98649.47;4972593;28;20435;-92
2024/01/22 00:36:56;;;;;;;8.85;1.55;;;;;;;10.63;100.00;98658.97;4972760;28;20563;-92
2024/01/22 00:39:22;;;;;;;16.95;2.30;;;;;;;10.58;100.00;98661.09;4972730;28;20426;-92
2024/01/22 00:41:47;;;;;;;15.00;2.47;;;;;;;10.53;100.00;98665.03;4973090;28;20015;-91
2024/01/22 00:44:12;;;;;;;10.40;2.42;;;;;;;10.49;100.00;98652.41;4972849;28;20110;-92
2024/01/22 00:46:38;;;;;;;12.10;1.88;;;;;;;10.49;100.00;98649.00;4972841;28;20162;-92
2024/01/22 00:49:03;;;;;;;12.38;1.88;;;;;;;10.50;100.00;98663.53;4972688;28;20485;-92
2024/01/22 00:51:28;;;;;;;14.20;1.60;;;;;;;10.49;100.00;98665.28;4972587;28;20035;-92
2024/01/22 00:53:54;;;;;;;14.30;2.25;;;;;;;10.40;100.00;98658.34;4972896;28;20278;-92
2024/01/22 00:56:19;;;;;;;14.55;2.40;;;;;;;10.41;100.00;98672.88;4972586;28;20027;-93
2024/01/22 00:58:45;;;;;;;7.80;1.45;;;;;;;10.34;100.00;98684.66;4972690;28;20035;-89
2024/01/22 01:01:11;;;;;;;10.20;1.67;;;;;;;10.28;100.00;98673.06;4972760;28;20082;-91
2024/01/22 01:03:36;;;;;;;12.75;2.17;;;;;;;10.35;100.00;98682.88;4973131;28;20023;-92
2024/01/22 01:06:01;;;;;;;19.35;2.70;;;;;;;10.34;100.00;98728.50;4971233;28;20037;-91
2024/01/22 01:08:27;;;;;;;13.38;2.13;;;;;;;10.35;100.00;98688.84;4972852;28;20022;-91
2024/01/22 01:10:52;;;;;;;21.17;3.22;;;;;;;10.50;100.00;98717.69;4972668;28;20437;-91
2024/01/22 01:13:18;;;;;;;19.25;3.55;;;;;;;10.47;100.00;98707.63;4973051;28;20030;-92
2024/01/22 01:15:44;;;;;;;23.40;2.88;;;;;;;10.45;100.00;98709.53;4971538;28;20035;-92
2024/01/22 01:18:09;;;;;;;24.67;4.35;;;;;;;10.50;100.00;98728.00;4971533;28;20050;-91
2024/01/22 01:20:37;;;;;;;25.90;3.45;;;;;;;10.49;100.00;98721.22;4971173;28;20122;-92
2024/01/22 01:23:02;;;;;;;36.53;5.65;;;;;;;10.47;100.00;98702.47;4972540;28;20035;-92
2024/01/22 01:25:28;;;;;;;32.30;5.43;;;;;;;10.50;100.00;98717.69;4972670;28;20477;-91
2024/01/22 01:27:53;;;;;;;44.75;7.53;;;;;;;10.41;100.00;98727.03;4971618;28;20043;-92
2024/01/22 01:30:18;;;;;;;42.00;5.80;;;;;;;10.44;100.00;98713.06;4972358;28;20082;-91
2024/01/22 01:32:44;;;;;;;42.92;8.65;;;;;;;10.39;100.00;98720.38;4972725;28;20482;-91
2024/01/22 01:35:09;;;;;;;45.97;7.30;;;;;;;10.35;100.00;98721.56;4972448;28;20395;-92
2024/01/22 01:37:35;;;;;;;51.47;7.43;;;;;;;10.40;100.00;98727.97;4972613;28;20381;-91
2024/01/22 01:40:00;;;;;;;46.75;7.78;;;;;;;10.36;100.00;98730.94;4972572;28;20089;-91
2024/01/22 01:42:26;;;;;;;39.28;6.25;;;;;;;10.39;100.00;98725.53;4972507;28;20064;-92
2024/01/22 01:44:52;;;;;;;59.55;9.02;;;;;;;10.34;100.00;98733.66;4972649;28;20077;-92
2024/01/22 01:47:18;;;;;;;42.45;8.75;;;;;;;10.33;100.00;98752.63;4972692;28;20026;-92
2024/01/22 01:49:45;;;;;;;57.60;9.75;;;;;;;10.26;100.00;98757.44;4975082;28;20030;-92
2024/01/22 01:52:12;;;;;;;56.00;9.82;;;;;;;10.28;100.00;98747.84;4976483;28;20505;-92
2024/01/22 01:54:38;;;;;;;64.18;8.38;;;;;;;10.26;100.00;98752.28;4975362;28;20027;-92
2024/01/22 01:57:07;;;;;;;61.88;8.70;;;;;;;10.20;100.00;98755.38;4974577;28;20470;-93
2024/01/22 01:59:35;;;;;;;57.40;11.50;;;;;;;10.15;100.00;98767.84;4976007;28;20110;-92
2024/01/22 02:02:00;;;;;;;61.67;8.80;;;;;;;10.19;100.00;98776.97;4974735;28;20386;-92
2024/01/22 02:04:26;;;;;;;56.53;8.95;;;;;;;10.20;100.00;98796.66;4975951;28;20478;-92
2024/01/22 02:06:51;;;;;;;55.53;10.95;;;;;;;10.09;100.00;98776.06;4976018;28;20031;-93
2024/01/22 02:09:17;;;;;;;45.15;7.55;;;;;;;10.17;100.00;98798.63;4975522;28;20027;-92
2024/01/22 02:11:42;;;;;;;60.50;9.10;;;;;;;10.11;100.00;98784.50;4974375;28;20027;-92
2024/01/22 02:14:07;;;;;;;57.45;9.57;;;;;;;9.97;100.00;98797.69;4975818;28;20105;-93
2024/01/22 02:16:33;;;;;;;57.20;10.02;;;;;;;10.01;100.00;98788.78;4973693;28;20046;-92
2024/01/22 02:18:58;;;;;;;57.90;7.88;;;;;;;10.03;100.00;98803.19;4974189;28;20026;-93
2024/01/22 02:21:23;;;;;;;71.18;9.73;;;;;;;10.02;100.00;98821.34;4974230;28;20022;-92
2024/01/22 02:23:49;;;;;;;50.90;9.93;;;;;;;10.04;100.00;98845.22;4974255;28;20109;-92
2024/01/22 02:26:14;;;;;;;31.05;5.57;;;;;;;9.74;100.00;98864.78;4975586;28;20469;-91
2024/01/22 02:28:39;;;;;;;18.20;3.47;;;;;;;9.52;100.00;98865.66;4973805;28;20392;-91
2024/01/22 02:31:07;;;;;;;17.13;3.05;;;;;;;9.41;100.00;98875.97;4975536;28;20030;-93
2024/01/22 02:33:32;;;;;;;26.25;4.28;;;;;;;9.31;100.00;98888.72;4975402;28;20029;-92
2024/01/22 02:35:58;;;;;;;31.05;4.43;;;;;;;9.19;100.00;98881.94;4974055;28;20031;-91
2024/01/22 02:38:23;;;;;;;26.30;4.35;;;;;;;9.20;100.00;98891.31;4975596;28;20063;-92
2024/01/22 02:40:48;;;;;;;35.80;6.80;;;;;;;9.14;100.00;98902.06;4975530;28;20470;-92
2024/01/22 02:43:14;;;;;;;25.45;5.13;;;;;;;9.12;100.00;98898.78;4975205;28;20046;-92
2024/01/22 02:45:39;;;;;;;40.08;6.00;;;;;;;9.06;100.00;98894.13;4975062;28;20019;-92
2024/01/22 02:48:05;;;;;;;31.60;5.45;;;;;;;9.02;100.00;98931.31;4975147;28;20114;-92
2024/01/22 02:50:30;;;;;;;47.03;6.47;;;;;;;8.92;100.00;98920.91;4975123;28;20098;-91
2024/01/22 02:52:55;;;;;;;55.85;7.95;;;;;;;8.88;100.00;98935.75;4975284;28;20026;-91
2024/01/22 02:55:21;;;;;;;55.67;6.55;;;;;;;8.84;100.00;98936.09;4975094;28;20038;-92
2024/01/22 02:57:46;;;;;;;48.55;6.63;;;;;;;8.88;100.00;98953.75;4974709;28;20170;-93
2024/01/22 03:00:13;;;;;;;42.45;7.00;;;;;;;8.85;100.00;98956.56;4974931;28;20062;-92
2024/01/22 03:02:38;;;;;;;56.22;7.90;;;;;;;8.72;100.00;98953.25;4973514;28;20034;-92
2024/01/22 03:05:04;;;;;;;47.05;7.30;;;;;;;8.73;100.00;98980.59;4974611;28;20027;-93
2024/01/22 03:07:29;;;;;;;48.35;7.15;;;;;;;8.75;100.00;98964.16;4974338;28;20031;-92
2024/01/22 03:09:55;;;;;;;54.50;8.15;;;;;;;8.74;100.00;98966.81;4974800;28;20037;-92
2024/01/22 03:12:20;;;;;;;47.30;6.65;;;;;;;8.58;100.00;98967.09;4974842;28;20041;-92
2024/01/22 03:14:45;;;;;;;40.50;5.82;;;;;;;8.46;100.00;98976.56;4974545;28;20031;-93
2024/01/22 03:17:11;;;;;;;40.25;7.13;;;;;;;8.51;100.00;98968.47;4974207;28;20069;-92
2024/01/22 03:19:36;;;;;;;52.15;8.75;;;;;;;8.40;100.00;98976.97;4974604;28;20037;-92
2024/01/22 03:22:02;;;;;;;53.95;8.18;;;;;;;8.42;100.00;98998.25;4973487;28;20034;-91
2024/01/22 03:24:27;;;;;;;57.05;7.55;;;;;;;8.49;100.00;99003.78;4973340;28;20486;-92
2024/01/22 03:26:52;;;;;;;48.33;7.32;;;;;;;8.48;100.00;98991.84;4974083;28;20046;-92
2024/01/22 03:29:18;;;;;;;56.47;9.70;;;;;;;8.45;100.00;99008.31;4974302;28;20023;-92
2024/01/22 03:31:43;;;;;;;49.00;9.23;;;;;;;8.47;100.00;99008.22;4974363;28;20482;-93
2024/01/22 03:34:08;;;;;;;50.15;8.30;;;;;;;8.50;100.00;98995.13;4973194;28;20023;-93
2024/01/22 03:36:35;;;;;;;44.75;7.07;;;;;;;8.49;100.00;99014.91;4974239;28;20038;-92
2024/01/22 03:39:00;;;;;;;59.65;8.25;;;;;;;8.47;100.00;99019.31;4974288;28;20031;-93
2024/01/22 03:41:26;;;;;;;53.08;7.32;;;;;;;8.46;100.00;99009.97;4974119;28;20500;-92
2024/01/22 03:43:51;;;;;;;56.88;7.43;;;;;;;8.46;100.00;99024.56;4973883;28;20055;-92
2024/01/22 03:46:17;;;;;;;54.85;6.60;;;;;;;8.45;100.00;99038.38;4974120;28;20489;-92
2024/01/22 03:48:43;;;;;;;61.42;8.73;;;;;;;8.44;100.00;99034.97;4973922;28;20026;-92
2024/01/22 03:51:08;;;;;;;58.00;8.18;;;;;;;8.39;100.00;99037.03;4973806;28;20109;-91
2024/01/22 03:53:34;;;;;;;52.72;6.85;;;;;;;8.39;100.00;99060.16;4973706;28;20054;-92
2024/01/22 03:56:04;;;;;;;60.30;8.30;;;;;;;8.38;100.00;99045.66;4972270;28;20453;-92
2024/01/22 03:58:29;;;;;;;49.13;6.53;;;;;;;8.35;100.00;99053.59;4973889;28;20038;-91
2024/01/22 04:00:56;;;;;;;49.03;6.82;;;;;;;8.33;100.00;99065.72;4973743;28;20105;-91
2024/01/22 04:03:21;;;;;;;55.85;6.85;;;;;;;8.26;100.00;99064.50;4972204;28;20437;-92
2024/01/22 04:05:46;;;;;;;57.50;8.27;;;;;;;8.23;100.00;99080.97;4973647;28;20440;-92
2024/01/22 04:08:12;;;;;;;61.95;10.45;;;;;;;8.26;100.00;99087.63;4972314;28;20382;-92
2024/01/22 04:10:37;;;;;;;59.60;8.85;;;;;;;8.14;100.00;99082.44;4973456;28;20054;-92
2024/01/22 04:13:03;;;;;;;45.13;6.63;;;;;;;8.15;100.00;99089.22;4973298;28;20035;-92
2024/01/22 04:15:28;;;;;;;44.05;7.72;;;;;;;8.16;100.00;99087.47;4972963;28;20034;-92
2024/01/22 04:17:53;;;;;;;46.63;6.93;;;;;;;8.10;100.00;99091.28;4973566;28;20481;-93
2024/01/22 04:20:18;;;;;;;57.97;7.78;;;;;;;8.08;100.00;99108.53;4973614;28;20495;-91
2024/01/22 04:22:44;;;;;;;47.92;8.32;;;;;;;8.15;100.00;99111.53;4973044;28;20464;-92
2024/01/22 04:25:09;;;;;;;46.22;7.13;;;;;;;8.10;100.00;99122.13;4973177;28;20027;-92
2024/01/22 04:27:36;;;;;;;56.90;8.52;;;;;;;8.05;100.00;99120.78;4973397;28;20022;-92
2024/01/22 04:30:02;;;;;;;56.60;10.07;;;;;;;8.03;100.00;99120.88;4973307;28;20393;-92
2024/01/22 04:32:28;;;;;;;51.58;8.50;;;;;;;8.01;100.00;99130.44;4973000;28;20439;-91
2024/01/22 04:34:54;;;;;;;50.83;7.43;;;;;;;7.95;100.00;99118.03;4973218;28;20160;-91
2024/01/22 04:37:21;;;;;;;53.63;6.82;;;;;;;8.00;100.00;99141.66;4973313;28;20030;-91
2024/01/22 04:39:46;;;;;;;51.63;7.63;;;;;;;8.03;100.00;99140.63;4973217;28;20027;-91
2024/01/22 04:42:12;;;;;;;56.83;9.98;;;;;;;8.03;100.00;99150.91;4971691;28;20122;-93
2024/01/22 04:44:38;;;;;;;59.08;7.93;;;;;;;8.01;100.00;99168.16;4971777;28;20082;-92
2024/01/22 04:47:03;;;;;;;61.78;7.65;;;;;;;7.96;100.00;99165.91;4973026;28;20027;-91
2024/01/22 04:49:28;;;;;;;53.08;7.55;;;;;;;7.92;100.00;99180.72;4973317;28;20081;-92
2024/01/22 04:51:54;;;;;;;59.70;8.52;;;;;;;7.90;100.00;99158.59;4973066;28;20457;-91
2024/01/22 04:54:20;;;;;;;48.30;6.50;;;;;;;7.83;100.00;99172.81;4973040;28;20401;-92
2024/01/22 04:56:46;;;;;;;62.28;8.00;;;;;;;7.82;100.00;99181.41;4972773;28;20031;-92
2024/01/22 04:59:12;;;;;;;50.38;6.60;;;;;;;7.78;100.00;99188.50;4973193;28;20117;-91
2024/01/22 05:01:37;;;;;;;41.78;7.43;;;;;;;7.80;100.00;99193.53;4973086;28;20688;-91
2024/01/22 05:04:04;;;;;;;41.90;6.07;;;;;;;7.79;100.00;99199.59;4972484;28;20030;-91
2024/01/22 05:06:29;;;;;;;52.45;6.53;;;;;;;7.82;100.00;99209.66;4972918;28;20169;-91
2024/01/22 05:08:55;;;;;;;42.70;6.68;;;;;;;7.75;100.00;99211.81;4971798;28;20027;-91
2024/01/22 05:11:20;;;;;;;45.13;7.05;;;;;;;7.74;100.00;99217.88;4971651;28;20027;-92
2024/01/22 05:13:49;;;;;;;63.25;8.93;;;;;;;7.74;100.00;99229.91;4971179;28;20394;-92
2024/01/22 05:16:19;;;;;;;42.67;7.18;;;;;;;7.76;100.00;99222.94;4972530;28;20034;-91
2024/01/22 05:18:45;;;;;;;48.10;6.35;;;;;;;7.74;100.00;99224.78;4972686;28;20035;-92
2024/01/22 05:21:11;;;;;;;45.97;6.28;;;;;;;7.76;100.00;99225.50;4973299;28;20034;-91
2024/01/22 05:23:37;;;;;;;45.42;7.55;;;;;;;7.72;100.00;99240.25;4973962;28;20490;-92
2024/01/22 05:26:03;;;;;;;42.92;6.38;;;;;;;7.66;100.00;99243.25;4976787;28;20117;-92
2024/01/22 05:28:28;;;;;;;49.20;5.82;;;;;;;7.63;100.00;99266.53;4976765;28;20154;-92
2024/01/22 05:30:54;;;;;;;38.08;6.22;;;;;;;7.65;100.00;99257.81;4976195;28;20023;-91
2024/01/22 05:33:19;;;;;;;48.70;6.78;;;;;;;7.54;100.00;99278.22;4976971;28;20101;-92
2024/01/22 05:35:44;;;;;;;46.45;7.35;;;;;;;7.59;100.00;99272.81;4976748;28;20053;-91
2024/01/22 05:38:10;;;;;;;54.08;6.80;;;;;;;7.59;100.00;99285.66;4977128;28;20054;-93
2024/01/22 05:40:35;;;;;;;46.60;6.43;;;;;;;7.54;100.00;99285.94;4976148;28;20018;-92
2024/01/22 05:43:00;;;;;;;46.63;6.85;;;;;;;7.49;100.00;99301.63;4976640;28;20027;-92
2024/01/22 05:45:26;;;;;;;58.33;8.38;;;;;;;7.58;100.00;99299.38;4976648;28;20041;-92
2024/01/22 05:47:51;;;;;;;49.13;8.07;;;;;;;7.55;100.00;99305.53;4976379;28;20023;-92
2024/01/22 05:50:17;;;;;;;36.25;6.45;;;;;;;7.57;100.00;99313.97;4976705;28;20023;-92
2024/01/22 05:52:42;;;;;;;37.00;7.78;;;;;;;7.59;100.00;99316.47;4976497;28;20101;-91
2024/01/22 05:55:08;;;;;;;51.67;6.22;;;;;;;7.59;100.00;99316.47;4976082;28;20106;-92
2024/01/22 05:57:33;;;;;;;43.40;5.75;;;;;;;7.66;100.00;99323.69;4976546;28;20034;-92
2024/01/22 05:59:58;;;;;;;43.22;6.45;;;;;;;7.66;100.00;99328.81;4976319;28;20437;-92
2024/01/22 06:02:25;;;;;;;51.55;5.88;;;;;;;7.66;100.00;99328.00;4975464;28;20493;-91
2024/01/22 06:04:50;;;;;;;39.00;7.38;;;;;;;7.62;100.00;99347.06;4976019;28;20094;-92
2024/01/22 06:07:15;;;;;;;41.03;8.30;;;;;;;7.65;100.00;99342.56;4976231;28;20106;-93
2024/01/22 06:09:41;;;;;;;42.85;5.88;;;;;;;7.59;100.00;99350.66;4976236;28;20433;-92
2024/01/22 06:12:06;;;;;;;44.88;6.55;;;;;;;7.50;100.00;99375.16;4975869;28;20061;-91
2024/01/22 06:14:32;;;;;;;55.33;7.88;;;;;;;7.45;100.00;99373.78;4974779;28;20096;-91
2024/01/22 06:16:57;;;;;;;33.60;5.60;;;;;;;7.49;100.00;99359.84;4974305;28;20034;-92
2024/01/22 06:19:23;;;;;;;40.00;7.75;;;;;;;7.45;100.00;99372.03;4975793;28;20034;-92
2024/01/22 06:21:48;;;;;;;36.78;6.13;;;;;;;7.44;100.00;99374.72;4975546;28;20465;-92
2024/01/22 06:24:15;;;;;;;42.47;6.30;;;;;;;7.47;100.00;99379.66;4976154;28;20073;-92
2024/01/22 06:26:40;;;;;;;41.70;6.18;;;;;;;7.43;100.00;99383.34;4975970;28;20381;-92
2024/01/22 06:29:08;;;;;;;42.60;8.10;;;;;;;7.44;100.00;99385.81;4975501;28;20027;-92
2024/01/22 06:31:33;;;;;;;39.72;6.45;;;;;;;7.43;100.00;99406.44;4975757;28;20088;-92
2024/01/22 06:33:58;;;;;;;39.92;5.60;;;;;;;7.44;100.00;99401.22;4975179;28;20023;-92
2024/01/22 06:36:24;;;;;;;45.88;6.97;;;;;;;7.42;100.00;99417.63;4975668;28;20153;-93
2024/01/22 06:38:49;;;;;;;44.83;6.38;;;;;;;7.35;100.00;99426.63;4975463;28;20050;-92
2024/01/22 06:41:19;;;;;;;40.60;5.22;;;;;;;7.38;100.00;99431.56;4975795;28;20034;-91
2024/01/22 06:43:44;;;;;;;53.53;6.03;;;;;;;7.31;100.00;99425.97;4974496;28;20022;-91
2024/01/22 06:46:09;;;;;;;39.45;7.03;;;;;;;7.32;100.00;99442.22;4975011;28;20154;-93
2024/01/22 06:48:35;;;;;;;47.67;7.35;;;;;;;7.37;100.00;99435.88;4975420;28;20086;-92
2024/01/22 06:51:00;;;;;;;39.45;6.68;;;;;;;7.37;100.00;99445.31;4975255;28;20578;-92
2024/01/22 06:53:25;;;;;;;41.65;5.60;;;;;;;7.39;100.00;99453.72;4974637;28;20030;-92
2024/01/22 06:55:51;;;;;;;37.17;5.35;;;;;;;7.36;100.00;99456.50;4975191;28;20026;-92
2024/01/22 06:58:16;;;;;;;37.55;5.68;;;;;;;7.32;100.00;99457.63;4975398;28;20280;-91
2024/01/22 07:00:42;;;;;;;29.23;3.72;;;;;;;7.19;100.00;99453.19;4975077;28;20030;-92
2024/01/22 07:03:08;;;;;;;20.80;3.13;;;;;;;7.05;100.00;99455.75;4974713;28;20023;-92
2024/01/22 07:05:34;;;;;;;28.08;5.20;;;;;;;7.17;100.00;99473.00;4975066;28;20058;-92
2024/01/22 07:08:00;;;;;;;19.35;3.42;;;;;;;7.09;100.00;99457.22;4975191;28;20359;-92
2024/01/22 07:10:25;;;;;;;15.85;3.00;;;;;;;7.21;100.00;99492.41;4975093;28;20023;-92
2024/01/22 07:12:50;;;;;;;25.52;2.88;;;;;;;7.17;100.00;99485.84;4974942;28;20031;-91
2024/01/22 07:15:16;;;;;;;21.08;3.85;;;;;;;7.15;100.00;99481.72;4974814;28;20023;-92
2024/01/22 07:17:41;;;;;;;18.38;3.22;;;;;;;7.07;100.00;99474.44;4973348;28;20035;-92
2024/01/22 07:20:16;;;;;;;32.40;3.38;;;;;;;7.04;100.00;99469.50;4973726;28;20370;-92
2024/01/22 07:22:42;;;;;;;17.65;2.67;;;;;;;6.89;100.00;99493.47;4974495;28;20437;-92
2024/01/22 07:25:09;;;;;;;16.67;3.20;;;;;;;6.77;100.00;99488.13;4974430;28;20461;-92
2024/01/22 07:27:38;;;;;;;21.42;2.58;;;;;;;6.76;100.00;99496.72;4973407;28;20042;-92
2024/01/22 07:30:08;;;;;;;16.35;2.25;;;;;;;6.79;100.00;99495.72;4973485;28;20023;-91
2024/01/22 07:32:36;;;;;;;23.30;2.50;;;;;;;6.74;100.00;99497.75;4973164;28;20031;-92
2024/01/22 07:35:07;;;;;;;19.83;2.80;;;;;;;6.84;100.00;99512.50;4973247;28;20023;-92
2024/01/22 07:37:36;;;;;;;17.85;2.45;;;;;;;6.76;100.00;99512.13;4974505;28;20029;-93
2024/01/22 07:40:04;;;;;;;26.35;3.60;;;;;;;6.70;100.00;99519.31;4973318;28;20375;-92
2024/01/22 07:42:31;;;;;;;17.50;2.80;;;;;;;6.73;100.00;99520.00;4973570;28;20030;-92
2024/01/22 07:44:56;;;;;;;18.52;3.03;;;;;;;6.67;100.00;99527.19;4974249;28;20026;-93
2024/01/22 07:47:22;;;;;;;27.55;3.22;;;;;;;6.68;100.00;99529.66;4974086;28;20027;-92
2024/01/22 07:49:47;;;;;;;16.02;2.90;;;;;;;6.69;100.00;99549.28;4974774;28;20023;-92
2024/01/22 07:52:12;;;;;;;22.35;4.95;;;;;;;6.75;100.00;99556.63;4974671;28;20065;-93
2024/01/22 07:54:38;;;;;;;32.03;4.40;;;;;;;6.79;100.00;99552.97;4974823;28;20070;-92
2024/01/22 07:57:03;;;;;;;26.00;3.28;;;;;;;6.88;100.00;99561.06;4974351;28;20402;-92
2024/01/22 07:59:29;;;;;;;29.80;3.88;;;;;;;6.85;100.00;99567.19;4973353;28;20031;-92
2024/01/22 08:01:54;;;;;;;23.25;3.33;;;;;;;6.89;100.00;99575.56;4974579;28;20018;-93
2024/01/22 08:04:19;;;;;;;24.15;4.30;;;;;;;6.79;100.00;99576.06;4973528;28;20168;-93
2024/01/22 08:06:45;;;;;;;34.70;4.90;;;;;;;6.82;100.00;99578.44;4973878;28;20038;-92
2024/01/22 08:09:11;;;;;;;34.00;5.30;;;;;;;6.79;100.00;99583.75;4974502;28;20105;-93
2024/01/22 08:11:39;;;;;;;29.50;4.47;;;;;;;6.86;100.00;99591.94;4973853;28;20031;-93
2024/01/22 08:14:04;;;;;;;33.17;4.43;;;;;;;6.81;100.00;99601.63;4974351;28;20511;-93
2024/01/22 08:16:30;;;;;;;22.85;4.78;;;;;;;6.82;100.00;99588.69;4973719;28;20038;-92
2024/01/22 08:18:55;;;;;;;82.57;9.43;;;;;;;6.82;100.00;99600.72;4973300;28;20089;-93
2024/01/22 08:21:21;;;;;;;30.10;4.72;;;;;;;6.85;100.00;99603.94;4974340;28;20023;-93
2024/01/22 08:23:46;;;;;;;27.83;4.72;;;;;;;6.86;100.00;99597.88;4974151;28;20030;-92
2024/01/22 08:26:11;;;;;;;40.45;5.43;;;;;;;6.90;100.00;99621.66;4973960;28;20242;-93
2024/01/22 08:28:37;;;;;;;30.13;3.95;;;;;;;6.90;100.00;99636.19;4974483;28;20037;-93
2024/01/22 08:31:02;;;;;;;21.88;4.85;;;;;;;6.92;100.00;99634.38;4973926;28;20031;-93
2024/01/22 08:33:27;;;;;;;31.17;4.55;;;;;;;6.99;100.00;99661.34;4973913;28;20022;-92
2024/01/22 08:35:53;;;;;;;27.13;4.88;;;;;;;6.97;100.00;99658.03;4972603;28;20031;-92
2024/01/22 08:38:18;;;;;;;24.40;3.83;;;;;;;7.06;100.00;99685.75;4973366;28;20031;-92
2024/01/22 08:40:44;;;;;;;32.70;4.18;;;;;;;6.91;100.00;99690.00;4973227;28;20106;-92
2024/01/22 08:43:10;;;;;;;30.60;5.75;;;;;;;6.83;100.00;99680.16;4973500;28;20026;-92
2024/01/22 08:45:36;;;;;;;29.23;3.47;;;;;;;6.80;100.00;99667.50;4973649;28;20037;-93
2024/01/22 08:48:01;;;;;;;17.60;3.70;;;;;;;6.74;100.00;99682.38;4973199;28;20456;-92
2024/01/22 08:50:27;;;;;;;12.07;2.63;;;;;;;6.70;100.00;99674.00;4973300;28;20548;-92
2024/01/22 08:52:56;;;;;;;17.13;3.70;;;;;;;6.51;100.00;99663.06;4973721;28;20362;-91
2024/01/22 08:55:25;;;;;;;13.18;2.03;;;;;;;6.49;100.00;99672.63;4972826;28;20457;-91
2024/01/22 08:57:53;;;;;;;15.93;2.53;;;;;;;6.46;100.00;99665.06;4972505;28;20034;-92
2024/01/22 09:00:20;;;;;;;15.02;2.47;;;;;;;6.30;100.00;99673.56;4975345;28;20118;-92
2024/01/22 09:02:45;;;;;;;21.88;2.35;;;;;;;6.33;100.00;99665.72;4975840;28;20029;-93
2024/01/22 09:05:11;;;;;;;12.30;1.67;;;;;;;6.28;100.00;99674.56;4976286;28;20038;-93
2024/01/22 09:07:37;;;;;;;12.57;1.33;;;;;;;6.26;100.00;99681.47;4975405;28;20037;-91
2024/01/22 09:10:06;;;;;;;13.52;1.80;;;;;;;6.48;100.00;99681.19;4977134;28;20405;-91
2024/01/22 09:12:33;;;;;;;13.15;1.98;;;;;;;6.54;100.00;99683.44;4976471;28;20030;-91
2024/01/22 09:14:58;;;;;;;18.67;2.15;;;;;;;6.67;100.00;99696.44;4976871;28;20057;-91
2024/01/22 09:17:24;;;;;;;17.08;2.45;;;;;;;6.67;100.00;99692.13;4977412;28;20460;-91
2024/01/22 09:19:50;;;;;;;16.45;4.10;;;;;;;6.84;100.00;99689.47;4976802;28;20527;-91
2024/01/22 09:22:15;;;;;;;21.92;2.70;;;;;;;6.89;100.00;99696.13;4977920;28;20361;-91
2024/01/22 09:24:40;;;;;;;18.17;2.38;;;;;;;6.85;100.00;99700.56;4976337;28;20022;-91
2024/01/22 09:27:06;;;;;;;20.60;2.40;;;;;;;6.92;100.00;99701.06;4975910;28;20058;-91
2024/01/22 09:29:31;;;;;;;24.65;2.92;;;;;;;6.81;100.00;99701.66;4976496;28;20053;-91
2024/01/22 09:31:56;;;;;;;21.30;2.83;;;;;;;6.76;100.00;99699.34;4974967;28;20481;-90
2024/01/22 09:34:22;;;;;;;14.65;2.40;;;;;;;6.79;100.00;99699.16;4976494;28;20114;-91
2024/01/22 09:36:47;;;;;;;18.10;3.78;;;;;;;6.81;100.00;99705.03;4975489;28;20117;-91
2024/01/22 09:39:12;;;;;;;18.35;2.45;;;;;;;6.89;100.00;99708.94;4976226;28;20122;-91
2024/01/22 09:41:39;;;;;;;23.83;2.63;;;;;;;6.89;100.00;99712.31;4976577;28;20105;-91
2024/01/22 09:44:06;;;;;;;17.95;2.15;;;;;;;6.78;100.00;99720.59;4977032;28;20109;-91
2024/01/22 09:46:32;;;;;;;14.15;2.60;;;;;;;6.73;100.00;99717.47;4976908;28;20477;-91
2024/01/22 09:48:58;;;;;;;28.30;3.22;;;;;;;6.72;100.00;99736.31;4971440;28;20023;-91
2024/01/22 09:51:23;;;;;;;29.83;3.47;;;;;;;6.81;100.00;99743.53;4975710;28;20057;-91
2024/01/22 09:53:50;;;;;;;23.30;3.67;;;;;;;7.14;100.00;99742.59;4976665;28;20489;-91
2024/01/22 09:56:19;;;;;;;28.00;3.53;;;;;;;7.36;100.00;99761.97;4979516;28;20031;-91
2024/01/22 09:58:45;;;;;;;32.10;3.97;;;;;;;7.57;100.00;99765.09;4974931;28;20030;-91
2024/01/22 10:01:11;;;;;;;28.33;4.28;;;;;;;7.77;100.00;99759.66;4976301;28;20031;-91
2024/01/22 10:03:39;;;;;;;24.20;5.07;;;;;;;7.75;100.00;99768.38;4977054;28;20756;-91
2024/01/22 10:06:05;;;;;;;32.08;4.10;;;;;;;8.22;100.00;99762.22;4977261;28;20385;-91
2024/01/22 10:08:30;;;;;;;26.90;3.55;;;;;;;7.99;100.00;99774.69;4976458;28;20034;-91
2024/01/22 10:10:56;;;;;;;32.25;4.45;;;;;;;7.78;100.00;99773.31;4973807;28;20031;-92
2024/01/22 10:13:21;;;;;;;28.83;4.53;;;;;;;7.90;100.00;99788.91;4973172;28;20434;-91
2024/01/22 10:15:47;;;;;;;29.65;4.28;;;;;;;8.01;100.00;99790.84;4975820;28;20038;-91
2024/01/22 10:18:14;;;;;;;43.30;4.72;;;;;;;8.11;100.00;99776.53;4968788;28;20421;-91
2024/01/22 10:20:43;;;;;;;31.45;6.38;;;;;;;8.57;100.00;99784.16;4974086;28;20059;-91
2024/01/22 10:23:09;;;;;;;21.48;3.95;;;;;;;8.85;100.00;99803.09;4973481;28;20026;-91
2024/01/22 10:25:35;;;;;;;32.20;5.20;;;;;;;8.44;100.00;99792.72;4973968;28;20084;-91
2024/01/22 10:28:08;;;;;;;29.58;3.92;;;;;;;8.17;100.00;99825.94;4973911;28;20153;-91
2024/01/22 10:30:36;;;;;;;30.80;5.15;;;;;;;7.89;100.00;99858.34;4972800;28;20034;-91
2024/01/22 10:33:22;;;;;;;31.25;4.22;;;;;;;7.58;100.00;99895.16;4971941;28;20114;-91
2024/01/22 10:35:50;;;;;;;23.35;3.83;;;;;;;7.36;100.00;99864.66;4973871;28;20051;-92
2024/01/22 10:38:18;;;;;;;10.35;2.25;;;;;;;7.12;100.00;99836.84;4969857;28;20602;-93
2024/01/22 10:40:45;;;;;;;21.67;2.70;;;;;;;7.25;100.00;99857.53;4973969;28;20130;-92
2024/01/22 10:43:26;;;;;;;18.00;3.20;;;;;;;7.41;100.00;99858.38;4972685;28;20027;-91
2024/01/22 10:45:54;;;;;;;8.98;2.05;;;;;;;7.51;100.00;99856.16;4969663;28;20484;-91
2024/01/22 10:48:21;;;;;;;18.40;2.55;;;;;;;9.49;100.00;99852.41;4971555;28;20030;-92
2024/01/22 10:50:48;;;;;;;8.40;1.13;;;;;;;9.89;100.00;99855.03;4973577;28;20022;-91
2024/01/22 10:53:15;;;;;;;11.25;1.30;;;;;;;10.29;100.00;99873.13;4972586;28;20336;-92
2024/01/22 10:55:55;;;;;;;9.90;2.38;;;;;;;11.65;93.08;99872.50;4972398;28;20026;-92
2024/01/22 10:58:25;;;;;;;8.52;1.13;;;;;;;11.09;94.08;99894.41;4970789;28;20023;-91
2024/01/22 11:00:54;;;;;;;6.07;0.93;;;;;;;11.62;92.99;99888.22;4972891;28;20023;-91
2024/01/22 11:03:25;;;;;;;9.60;1.13;;;;;;;12.11;89.16;99880.38;4971732;28;20033;-91
2024/01/22 11:05:56;;;;;;;11.30;1.25;;;;;;;12.95;82.06;99885.38;4972658;28;20973;-91
2024/01/22 11:08:22;;;;;;;8.35;1.55;;;;;;;13.24;85.60;99890.94;4973561;28;20061;-91
2024/01/22 11:10:50;;;;;;;10.80;1.20;;;;;;;12.17;81.16;99892.88;4973193;28;20470;-91
2024/01/22 11:13:16;;;;;;;7.63;1.00;;;;;;;11.75;84.76;99901.91;4972727;28;20027;-91
2024/01/22 11:15:42;;;;;;;9.75;1.63;;;;;;;12.20;83.09;99899.59;4972657;28;20031;-91
2024/01/22 11:18:10;;;;;;;9.38;1.65;;;;;;;11.18;93.28;99899.91;4972374;28;20070;-91